sensor_id;sensor_type;location;lat;lon;timestamp;P1;durP1;ratioP1;P2;durP2;ratioP2
25049;SDS011;13046;49.814;9.918;2023-08-01T00:02:10;7.20;;;4.95;;
25049;SDS011;13046;49.814;9.918;2023-08-01T00:04:36;9.60;;;5.40;;
25049;SDS011;13046;49.814;9.918;2023-08-01T00:07:02;8.98;;;5.30;;
25049;SDS011;13046;49.814;9.918;2023-08-01T00:09:28;7.97;;;5.35;;
25049;SDS011;13046;49.814;9.918;2023-08-01T00:11:54;12.73;;;6.68;;
25049;SDS011;13046;49.814;9.918;2023-08-01T00:14:20;9.32;;;5.53;;
25049;SDS011;13046;49.814;9.918;2023-08-01T00:16:49;9.05;;;5.75;;
25049;SDS011;13046;49.814;9.918;2023-08-01T00:19:15;10.57;;;6.00;;
25049;SDS011;13046;49.814;9.918;2023-08-01T00:21:41;8.02;;;5.55;;
25049;SDS011;13046;49.814;9.918;2023-08-01T00:24:07;12.23;;;6.95;;
25049;SDS011;13046;49.814;9.918;2023-08-01T00:26:34;8.07;;;5.90;;
25049;SDS011;13046;49.814;9.918;2023-08-01T00:29:00;8.77;;;5.60;;
25049;SDS011;13046;49.814;9.918;2023-08-01T00:31:26;8.15;;;6.80;;
25049;SDS011;13046;49.814;9.918;2023-08-01T00:33:52;7.63;;;5.93;;
25049;SDS011;13046;49.814;9.918;2023-08-01T00:36:19;8.38;;;6.30;;
25049;SDS011;13046;49.814;9.918;2023-08-01T00:38:45;9.32;;;6.40;;
25049;SDS011;13046;49.814;9.918;2023-08-01T00:41:11;10.88;;;6.22;;
25049;SDS011;13046;49.814;9.918;2023-08-01T00:43:37;9.57;;;5.45;;
25049;SDS011;13046;49.814;9.918;2023-08-01T00:46:04;10.00;;;5.97;;
25049;SDS011;13046;49.814;9.918;2023-08-01T00:48:30;8.70;;;6.40;;
25049;SDS011;13046;49.814;9.918;2023-08-01T00:50:57;9.48;;;6.55;;
25049;SDS011;13046;49.814;9.918;2023-08-01T00:53:24;8.40;;;6.28;;
25049;SDS011;13046;49.814;9.918;2023-08-01T00:55:51;11.57;;;7.63;;
25049;SDS011;13046;49.814;9.918;2023-08-01T00:58:18;12.20;;;6.90;;
25049;SDS011;13046;49.814;9.918;2023-08-01T01:00:45;9.82;;;6.15;;
25049;SDS011;13046;49.814;9.918;2023-08-01T01:03:11;16.60;;;6.72;;
25049;SDS011;13046;49.814;9.918;2023-08-01T01:05:38;12.88;;;5.82;;
25049;SDS011;13046;49.814;9.918;2023-08-01T01:08:05;9.15;;;6.22;;
25049;SDS011;13046;49.814;9.918;2023-08-01T01:10:31;10.85;;;6.18;;
25049;SDS011;13046;49.814;9.918;2023-08-01T01:12:58;10.48;;;6.72;;
25049;SDS011;13046;49.814;9.918;2023-08-01T01:15:25;9.38;;;6.00;;
25049;SDS011;13046;49.814;9.918;2023-08-01T01:17:51;9.95;;;7.50;;
25049;SDS011;13046;49.814;9.918;2023-08-01T01:20:22;11.43;;;5.85;;
25049;SDS011;13046;49.814;9.918;2023-08-01T01:22:49;9.30;;;6.55;;
25049;SDS011;13046;49.814;9.918;2023-08-01T01:25:16;9.15;;;6.28;;
25049;SDS011;13046;49.814;9.918;2023-08-01T01:27:44;9.07;;;5.88;;
25049;SDS011;13046;49.814;9.918;2023-08-01T01:30:10;6.60;;;5.53;;
25049;SDS011;13046;49.814;9.918;2023-08-01T01:32:37;8.32;;;6.03;;
25049;SDS011;13046;49.814;9.918;2023-08-01T01:35:04;8.77;;;5.90;;
25049;SDS011;13046;49.814;9.918;2023-08-01T01:37:30;7.13;;;5.63;;
25049;SDS011;13046;49.814;9.918;2023-08-01T01:39:56;9.20;;;5.95;;
25049;SDS011;13046;49.814;9.918;2023-08-01T01:42:22;10.52;;;5.88;;
25049;SDS011;13046;49.814;9.918;2023-08-01T01:44:48;8.95;;;6.05;;
25049;SDS011;13046;49.814;9.918;2023-08-01T01:47:14;9.38;;;5.70;;
25049;SDS011;13046;49.814;9.918;2023-08-01T01:49:41;11.52;;;6.78;;
25049;SDS011;13046;49.814;9.918;2023-08-01T01:52:07;8.68;;;7.43;;
25049;SDS011;13046;49.814;9.918;2023-08-01T01:54:33;9.68;;;7.20;;
25049;SDS011;13046;49.814;9.918;2023-08-01T01:56:59;10.88;;;5.35;;
25049;SDS011;13046;49.814;9.918;2023-08-01T01:59:25;10.73;;;5.47;;
25049;SDS011;13046;49.814;9.918;2023-08-01T02:01:51;7.38;;;5.78;;
25049;SDS011;13046;49.814;9.918;2023-08-01T02:04:17;7.40;;;6.40;;
25049;SDS011;13046;49.814;9.918;2023-08-01T02:06:43;9.73;;;5.40;;
25049;SDS011;13046;49.814;9.918;2023-08-01T02:09:09;9.00;;;6.80;;
25049;SDS011;13046;49.814;9.918;2023-08-01T02:11:35;10.02;;;6.05;;
25049;SDS011;13046;49.814;9.918;2023-08-01T02:14:01;8.63;;;5.78;;
25049;SDS011;13046;49.814;9.918;2023-08-01T02:16:28;12.45;;;6.47;;
25049;SDS011;13046;49.814;9.918;2023-08-01T02:18:54;8.57;;;5.47;;
25049;SDS011;13046;49.814;9.918;2023-08-01T02:21:20;9.25;;;6.38;;
25049;SDS011;13046;49.814;9.918;2023-08-01T02:23:46;8.68;;;6.35;;
25049;SDS011;13046;49.814;9.918;2023-08-01T02:26:13;8.60;;;5.85;;
25049;SDS011;13046;49.814;9.918;2023-08-01T02:28:39;8.45;;;5.05;;
25049;SDS011;13046;49.814;9.918;2023-08-01T02:31:05;8.38;;;5.85;;
25049;SDS011;13046;49.814;9.918;2023-08-01T02:33:31;8.38;;;5.97;;
25049;SDS011;13046;49.814;9.918;2023-08-01T02:35:57;7.28;;;5.40;;
25049;SDS011;13046;49.814;9.918;2023-08-01T02:38:23;10.52;;;6.95;;
25049;SDS011;13046;49.814;9.918;2023-08-01T02:40:49;8.40;;;5.72;;
25049;SDS011;13046;49.814;9.918;2023-08-01T02:43:15;8.20;;;5.88;;
25049;SDS011;13046;49.814;9.918;2023-08-01T02:45:42;8.38;;;6.38;;
25049;SDS011;13046;49.814;9.918;2023-08-01T02:48:08;7.38;;;6.10;;
25049;SDS011;13046;49.814;9.918;2023-08-01T02:50:34;11.02;;;6.78;;
25049;SDS011;13046;49.814;9.918;2023-08-01T02:53:00;11.77;;;5.72;;
25049;SDS011;13046;49.814;9.918;2023-08-01T02:55:26;7.63;;;5.53;;
25049;SDS011;13046;49.814;9.918;2023-08-01T02:57:53;7.93;;;5.60;;
25049;SDS011;13046;49.814;9.918;2023-08-01T03:00:19;9.15;;;5.88;;
25049;SDS011;13046;49.814;9.918;2023-08-01T03:02:45;14.25;;;6.93;;
25049;SDS011;13046;49.814;9.918;2023-08-01T03:05:11;9.27;;;5.80;;
25049;SDS011;13046;49.814;9.918;2023-08-01T03:07:37;7.65;;;5.85;;
25049;SDS011;13046;49.814;9.918;2023-08-01T03:10:03;8.48;;;5.88;;
25049;SDS011;13046;49.814;9.918;2023-08-01T03:12:29;8.35;;;5.72;;
25049;SDS011;13046;49.814;9.918;2023-08-01T03:14:56;7.00;;;4.90;;
25049;SDS011;13046;49.814;9.918;2023-08-01T03:17:22;8.55;;;6.10;;
25049;SDS011;13046;49.814;9.918;2023-08-01T03:19:48;7.45;;;6.10;;
25049;SDS011;13046;49.814;9.918;2023-08-01T03:22:14;7.70;;;5.65;;
25049;SDS011;13046;49.814;9.918;2023-08-01T03:24:40;6.88;;;5.28;;
25049;SDS011;13046;49.814;9.918;2023-08-01T03:27:06;7.07;;;4.72;;
25049;SDS011;13046;49.814;9.918;2023-08-01T03:29:32;9.07;;;5.90;;
25049;SDS011;13046;49.814;9.918;2023-08-01T03:31:59;9.90;;;5.97;;
25049;SDS011;13046;49.814;9.918;2023-08-01T03:34:25;6.18;;;5.35;;
25049;SDS011;13046;49.814;9.918;2023-08-01T03:36:52;9.10;;;6.18;;
25049;SDS011;13046;49.814;9.918;2023-08-01T03:39:18;8.35;;;5.32;;
25049;SDS011;13046;49.814;9.918;2023-08-01T03:41:45;6.80;;;4.97;;
25049;SDS011;13046;49.814;9.918;2023-08-01T03:44:11;6.32;;;5.35;;
25049;SDS011;13046;49.814;9.918;2023-08-01T03:46:37;7.35;;;5.07;;
25049;SDS011;13046;49.814;9.918;2023-08-01T03:49:03;7.07;;;4.88;;
25049;SDS011;13046;49.814;9.918;2023-08-01T03:51:29;7.68;;;5.47;;
25049;SDS011;13046;49.814;9.918;2023-08-01T03:53:56;8.02;;;5.40;;
25049;SDS011;13046;49.814;9.918;2023-08-01T03:56:23;5.75;;;4.75;;
25049;SDS011;13046;49.814;9.918;2023-08-01T03:58:49;7.25;;;5.55;;
25049;SDS011;13046;49.814;9.918;2023-08-01T04:01:15;7.90;;;5.18;;
25049;SDS011;13046;49.814;9.918;2023-08-01T04:03:41;6.93;;;5.15;;
25049;SDS011;13046;49.814;9.918;2023-08-01T04:06:07;8.02;;;6.25;;
25049;SDS011;13046;49.814;9.918;2023-08-01T04:08:33;7.93;;;5.68;;
25049;SDS011;13046;49.814;9.918;2023-08-01T04:10:59;9.40;;;6.30;;
25049;SDS011;13046;49.814;9.918;2023-08-01T04:13:25;7.60;;;5.88;;
25049;SDS011;13046;49.814;9.918;2023-08-01T04:15:51;7.40;;;5.60;;
25049;SDS011;13046;49.814;9.918;2023-08-01T04:18:17;8.18;;;6.05;;
25049;SDS011;13046;49.814;9.918;2023-08-01T04:20:43;11.15;;;7.00;;
25049;SDS011;13046;49.814;9.918;2023-08-01T04:23:09;16.50;;;8.70;;
25049;SDS011;13046;49.814;9.918;2023-08-01T04:25:35;8.25;;;6.35;;
25049;SDS011;13046;49.814;9.918;2023-08-01T04:28:01;7.95;;;7.15;;
25049;SDS011;13046;49.814;9.918;2023-08-01T04:30:27;10.90;;;7.22;;
25049;SDS011;13046;49.814;9.918;2023-08-01T04:32:53;11.50;;;7.82;;
25049;SDS011;13046;49.814;9.918;2023-08-01T04:35:19;9.13;;;6.72;;
25049;SDS011;13046;49.814;9.918;2023-08-01T04:37:45;8.52;;;7.00;;
25049;SDS011;13046;49.814;9.918;2023-08-01T04:40:17;9.13;;;6.38;;
25049;SDS011;13046;49.814;9.918;2023-08-01T04:42:45;9.52;;;6.68;;
25049;SDS011;13046;49.814;9.918;2023-08-01T04:45:11;10.90;;;7.47;;
25049;SDS011;13046;49.814;9.918;2023-08-01T04:47:39;8.00;;;6.43;;
25049;SDS011;13046;49.814;9.918;2023-08-01T04:50:05;8.35;;;6.43;;
25049;SDS011;13046;49.814;9.918;2023-08-01T04:52:31;7.60;;;6.88;;
25049;SDS011;13046;49.814;9.918;2023-08-01T04:54:57;6.53;;;5.95;;
25049;SDS011;13046;49.814;9.918;2023-08-01T04:57:23;7.20;;;5.90;;
25049;SDS011;13046;49.814;9.918;2023-08-01T04:59:49;10.25;;;6.28;;
25049;SDS011;13046;49.814;9.918;2023-08-01T05:02:15;7.07;;;5.85;;
25049;SDS011;13046;49.814;9.918;2023-08-01T05:04:41;6.57;;;5.35;;
25049;SDS011;13046;49.814;9.918;2023-08-01T05:07:07;8.98;;;5.45;;
25049;SDS011;13046;49.814;9.918;2023-08-01T05:09:33;7.57;;;5.43;;
25049;SDS011;13046;49.814;9.918;2023-08-01T05:11:59;6.35;;;4.40;;
25049;SDS011;13046;49.814;9.918;2023-08-01T05:14:25;5.93;;;4.63;;
25049;SDS011;13046;49.814;9.918;2023-08-01T05:16:51;9.07;;;5.40;;
25049;SDS011;13046;49.814;9.918;2023-08-01T05:19:17;7.10;;;5.70;;
25049;SDS011;13046;49.814;9.918;2023-08-01T05:21:43;7.57;;;5.18;;
25049;SDS011;13046;49.814;9.918;2023-08-01T05:24:11;7.07;;;4.65;;
25049;SDS011;13046;49.814;9.918;2023-08-01T05:26:37;5.60;;;4.95;;
25049;SDS011;13046;49.814;9.918;2023-08-01T05:29:03;7.70;;;5.20;;
25049;SDS011;13046;49.814;9.918;2023-08-01T05:31:29;8.13;;;6.35;;
25049;SDS011;13046;49.814;9.918;2023-08-01T05:33:55;6.15;;;4.93;;
25049;SDS011;13046;49.814;9.918;2023-08-01T05:36:22;8.05;;;5.25;;
25049;SDS011;13046;49.814;9.918;2023-08-01T05:38:48;11.32;;;5.05;;
25049;SDS011;13046;49.814;9.918;2023-08-01T05:41:14;5.50;;;5.00;;
25049;SDS011;13046;49.814;9.918;2023-08-01T05:43:40;6.85;;;4.53;;
25049;SDS011;13046;49.814;9.918;2023-08-01T05:46:06;6.88;;;5.28;;
25049;SDS011;13046;49.814;9.918;2023-08-01T05:48:32;8.60;;;6.00;;
25049;SDS011;13046;49.814;9.918;2023-08-01T05:50:59;4.38;;;3.97;;
25049;SDS011;13046;49.814;9.918;2023-08-01T05:53:25;6.78;;;6.18;;
25049;SDS011;13046;49.814;9.918;2023-08-01T05:55:52;7.60;;;5.05;;
25049;SDS011;13046;49.814;9.918;2023-08-01T05:58:18;6.78;;;5.35;;
25049;SDS011;13046;49.814;9.918;2023-08-01T06:00:44;6.63;;;4.60;;
25049;SDS011;13046;49.814;9.918;2023-08-01T06:03:10;5.20;;;4.43;;
25049;SDS011;13046;49.814;9.918;2023-08-01T06:05:37;6.35;;;4.82;;
25049;SDS011;13046;49.814;9.918;2023-08-01T06:08:05;8.27;;;5.25;;
25049;SDS011;13046;49.814;9.918;2023-08-01T06:10:31;6.45;;;4.55;;
25049;SDS011;13046;49.814;9.918;2023-08-01T06:12:57;6.10;;;4.80;;
25049;SDS011;13046;49.814;9.918;2023-08-01T06:15:23;5.90;;;4.97;;
25049;SDS011;13046;49.814;9.918;2023-08-01T06:17:49;5.63;;;4.45;;
25049;SDS011;13046;49.814;9.918;2023-08-01T06:20:16;6.00;;;4.63;;
25049;SDS011;13046;49.814;9.918;2023-08-01T06:22:42;6.05;;;4.35;;
25049;SDS011;13046;49.814;9.918;2023-08-01T06:25:08;6.22;;;4.55;;
25049;SDS011;13046;49.814;9.918;2023-08-01T06:27:34;5.40;;;4.32;;
25049;SDS011;13046;49.814;9.918;2023-08-01T06:30:01;5.80;;;4.28;;
25049;SDS011;13046;49.814;9.918;2023-08-01T06:32:27;5.30;;;4.10;;
25049;SDS011;13046;49.814;9.918;2023-08-01T06:34:53;4.68;;;3.80;;
25049;SDS011;13046;49.814;9.918;2023-08-01T06:37:19;6.57;;;4.68;;
25049;SDS011;13046;49.814;9.918;2023-08-01T06:39:45;4.38;;;3.97;;
25049;SDS011;13046;49.814;9.918;2023-08-01T06:42:11;3.80;;;3.13;;
25049;SDS011;13046;49.814;9.918;2023-08-01T06:44:38;4.15;;;3.63;;
25049;SDS011;13046;49.814;9.918;2023-08-01T06:47:04;6.03;;;4.20;;
25049;SDS011;13046;49.814;9.918;2023-08-01T06:49:30;4.40;;;4.00;;
25049;SDS011;13046;49.814;9.918;2023-08-01T06:51:56;4.47;;;3.20;;
25049;SDS011;13046;49.814;9.918;2023-08-01T06:54:22;5.28;;;3.55;;
25049;SDS011;13046;49.814;9.918;2023-08-01T06:56:48;3.30;;;3.00;;
25049;SDS011;13046;49.814;9.918;2023-08-01T06:59:14;5.78;;;4.45;;
25049;SDS011;13046;49.814;9.918;2023-08-01T07:01:41;4.88;;;3.53;;
25049;SDS011;13046;49.814;9.918;2023-08-01T07:04:11;5.95;;;3.72;;
25049;SDS011;13046;49.814;9.918;2023-08-01T07:06:37;6.38;;;4.15;;
25049;SDS011;13046;49.814;9.918;2023-08-01T07:09:04;5.78;;;3.88;;
25049;SDS011;13046;49.814;9.918;2023-08-01T07:11:30;4.45;;;3.47;;
25049;SDS011;13046;49.814;9.918;2023-08-01T07:13:56;5.43;;;4.30;;
25049;SDS011;13046;49.814;9.918;2023-08-01T07:16:22;5.53;;;4.07;;
25049;SDS011;13046;49.814;9.918;2023-08-01T07:18:48;5.30;;;4.10;;
25049;SDS011;13046;49.814;9.918;2023-08-01T07:21:15;4.80;;;4.22;;
25049;SDS011;13046;49.814;9.918;2023-08-01T07:23:41;7.07;;;4.30;;
25049;SDS011;13046;49.814;9.918;2023-08-01T07:26:07;6.00;;;4.15;;
25049;SDS011;13046;49.814;9.918;2023-08-01T07:28:33;6.53;;;4.32;;
25049;SDS011;13046;49.814;9.918;2023-08-01T07:33:25;6.25;;;3.17;;
25049;SDS011;13046;49.814;9.918;2023-08-01T07:35:51;4.28;;;3.08;;
25049;SDS011;13046;49.814;9.918;2023-08-01T07:38:18;5.05;;;3.15;;
25049;SDS011;13046;49.814;9.918;2023-08-01T07:40:44;5.47;;;3.35;;
25049;SDS011;13046;49.814;9.918;2023-08-01T07:43:10;5.75;;;3.40;;
25049;SDS011;13046;49.814;9.918;2023-08-01T07:45:36;3.88;;;3.05;;
25049;SDS011;13046;49.814;9.918;2023-08-01T07:48:02;3.67;;;2.63;;
25049;SDS011;13046;49.814;9.918;2023-08-01T07:50:29;4.57;;;2.90;;
25049;SDS011;13046;49.814;9.918;2023-08-01T07:52:55;2.78;;;2.35;;
25049;SDS011;13046;49.814;9.918;2023-08-01T07:55:21;3.92;;;2.72;;
25049;SDS011;13046;49.814;9.918;2023-08-01T07:57:47;5.07;;;3.28;;
25049;SDS011;13046;49.814;9.918;2023-08-01T08:00:14;3.00;;;2.80;;
25049;SDS011;13046;49.814;9.918;2023-08-01T08:02:41;2.53;;;2.20;;
25049;SDS011;13046;49.814;9.918;2023-08-01T08:05:07;4.57;;;2.50;;
25049;SDS011;13046;49.814;9.918;2023-08-01T08:07:33;3.28;;;2.00;;
25049;SDS011;13046;49.814;9.918;2023-08-01T08:09:59;2.97;;;2.25;;
25049;SDS011;13046;49.814;9.918;2023-08-01T08:12:25;2.15;;;1.95;;
25049;SDS011;13046;49.814;9.918;2023-08-01T08:14:51;3.75;;;2.00;;
25049;SDS011;13046;49.814;9.918;2023-08-01T08:17:17;3.50;;;1.95;;
25049;SDS011;13046;49.814;9.918;2023-08-01T08:19:43;2.80;;;2.47;;
25049;SDS011;13046;49.814;9.918;2023-08-01T08:22:10;2.67;;;1.92;;
25049;SDS011;13046;49.814;9.918;2023-08-01T08:24:36;2.47;;;1.80;;
25049;SDS011;13046;49.814;9.918;2023-08-01T08:27:02;3.47;;;1.73;;
25049;SDS011;13046;49.814;9.918;2023-08-01T08:29:29;2.72;;;2.15;;
25049;SDS011;13046;49.814;9.918;2023-08-01T08:31:56;2.50;;;2.13;;
25049;SDS011;13046;49.814;9.918;2023-08-01T08:34:22;1.88;;;1.55;;
25049;SDS011;13046;49.814;9.918;2023-08-01T08:36:49;2.42;;;1.55;;
25049;SDS011;13046;49.814;9.918;2023-08-01T08:39:16;2.45;;;1.65;;
25049;SDS011;13046;49.814;9.918;2023-08-01T08:41:46;2.17;;;1.95;;
25049;SDS011;13046;49.814;9.918;2023-08-01T08:44:15;1.80;;;1.58;;
25049;SDS011;13046;49.814;9.918;2023-08-01T08:46:47;2.17;;;1.98;;
25049;SDS011;13046;49.814;9.918;2023-08-01T08:49:15;1.73;;;1.50;;
25049;SDS011;13046;49.814;9.918;2023-08-01T08:51:42;1.52;;;1.40;;
25049;SDS011;13046;49.814;9.918;2023-08-01T08:54:09;2.67;;;1.27;;
25049;SDS011;13046;49.814;9.918;2023-08-01T08:56:36;1.50;;;1.40;;
25049;SDS011;13046;49.814;9.918;2023-08-01T08:59:03;1.70;;;1.52;;
25049;SDS011;13046;49.814;9.918;2023-08-01T09:01:31;1.17;;;1.08;;
25049;SDS011;13046;49.814;9.918;2023-08-01T09:03:57;1.52;;;1.20;;
25049;SDS011;13046;49.814;9.918;2023-08-01T09:06:24;1.90;;;1.40;;
25049;SDS011;13046;49.814;9.918;2023-08-01T09:08:51;1.45;;;1.30;;
25049;SDS011;13046;49.814;9.918;2023-08-01T09:11:21;2.10;;;1.45;;
25049;SDS011;13046;49.814;9.918;2023-08-01T09:13:47;2.45;;;1.40;;
25049;SDS011;13046;49.814;9.918;2023-08-01T09:16:15;1.98;;;1.20;;
25049;SDS011;13046;49.814;9.918;2023-08-01T09:18:50;2.70;;;1.35;;
25049;SDS011;13046;49.814;9.918;2023-08-01T09:21:17;2.63;;;1.80;;
25049;SDS011;13046;49.814;9.918;2023-08-01T09:23:44;6.68;;;1.80;;
25049;SDS011;13046;49.814;9.918;2023-08-01T09:26:13;2.58;;;1.50;;
25049;SDS011;13046;49.814;9.918;2023-08-01T09:28:40;5.57;;;1.80;;
25049;SDS011;13046;49.814;9.918;2023-08-01T09:31:06;2.45;;;1.38;;
25049;SDS011;13046;49.814;9.918;2023-08-01T09:33:42;1.88;;;1.55;;
25049;SDS011;13046;49.814;9.918;2023-08-01T09:36:08;2.70;;;1.83;;
25049;SDS011;13046;49.814;9.918;2023-08-01T09:38:35;1.85;;;1.45;;
25049;SDS011;13046;49.814;9.918;2023-08-01T09:41:02;1.70;;;1.60;;
25049;SDS011;13046;49.814;9.918;2023-08-01T09:43:35;2.22;;;1.73;;
25049;SDS011;13046;49.814;9.918;2023-08-01T09:46:02;3.25;;;1.20;;
25049;SDS011;13046;49.814;9.918;2023-08-01T09:48:29;3.47;;;2.10;;
25049;SDS011;13046;49.814;9.918;2023-08-01T09:51:09;3.80;;;1.38;;
25049;SDS011;13046;49.814;9.918;2023-08-01T09:53:36;2.42;;;1.95;;
25049;SDS011;13046;49.814;9.918;2023-08-01T09:56:18;1.35;;;1.25;;
25049;SDS011;13046;49.814;9.918;2023-08-01T09:58:46;3.78;;;1.58;;
25049;SDS011;13046;49.814;9.918;2023-08-01T10:01:15;2.42;;;1.52;;
25049;SDS011;13046;49.814;9.918;2023-08-01T10:03:45;2.13;;;1.45;;
25049;SDS011;13046;49.814;9.918;2023-08-01T10:06:18;1.55;;;1.45;;
25049;SDS011;13046;49.814;9.918;2023-08-01T10:08:45;1.83;;;1.20;;
25049;SDS011;13046;49.814;9.918;2023-08-01T10:11:15;3.58;;;2.03;;
25049;SDS011;13046;49.814;9.918;2023-08-01T10:13:41;4.38;;;2.50;;
25049;SDS011;13046;49.814;9.918;2023-08-01T10:16:08;4.15;;;1.45;;
25049;SDS011;13046;49.814;9.918;2023-08-01T10:18:34;3.72;;;1.30;;
25049;SDS011;13046;49.814;9.918;2023-08-01T10:21:03;3.53;;;2.20;;
25049;SDS011;13046;49.814;9.918;2023-08-01T10:23:29;1.55;;;1.20;;
25049;SDS011;13046;49.814;9.918;2023-08-01T10:25:55;2.20;;;1.15;;
25049;SDS011;13046;49.814;9.918;2023-08-01T10:28:30;1.65;;;1.20;;
25049;SDS011;13046;49.814;9.918;2023-08-01T10:31:06;1.40;;;1.30;;
25049;SDS011;13046;49.814;9.918;2023-08-01T10:33:35;2.22;;;1.70;;
25049;SDS011;13046;49.814;9.918;2023-08-01T10:36:01;1.88;;;1.50;;
25049;SDS011;13046;49.814;9.918;2023-08-01T10:38:44;1.60;;;1.50;;
25049;SDS011;13046;49.814;9.918;2023-08-01T10:41:18;3.30;;;1.33;;
25049;SDS011;13046;49.814;9.918;2023-08-01T10:43:44;2.28;;;1.50;;
25049;SDS011;13046;49.814;9.918;2023-08-01T10:46:10;3.85;;;1.25;;
25049;SDS011;13046;49.814;9.918;2023-08-01T10:48:47;1.50;;;1.40;;
25049;SDS011;13046;49.814;9.918;2023-08-01T10:51:13;4.32;;;1.67;;
25049;SDS011;13046;49.814;9.918;2023-08-01T10:53:41;1.30;;;1.20;;
25049;SDS011;13046;49.814;9.918;2023-08-01T10:56:07;4.28;;;1.77;;
25049;SDS011;13046;49.814;9.918;2023-08-01T10:58:34;1.77;;;1.67;;
25049;SDS011;13046;49.814;9.918;2023-08-01T11:01:00;1.90;;;1.63;;
25049;SDS011;13046;49.814;9.918;2023-08-01T11:03:39;3.28;;;1.83;;
25049;SDS011;13046;49.814;9.918;2023-08-01T11:06:07;3.00;;;1.30;;
25049;SDS011;13046;49.814;9.918;2023-08-01T11:11:03;2.45;;;1.42;;
25049;SDS011;13046;49.814;9.918;2023-08-01T11:13:30;1.40;;;1.25;;
25049;SDS011;13046;49.814;9.918;2023-08-01T11:16:03;7.95;;;1.80;;
25049;SDS011;13046;49.814;9.918;2023-08-01T11:18:42;1.70;;;1.60;;
25049;SDS011;13046;49.814;9.918;2023-08-01T11:21:08;2.28;;;1.63;;
25049;SDS011;13046;49.814;9.918;2023-08-01T11:23:35;2.20;;;1.80;;
25049;SDS011;13046;49.814;9.918;2023-08-01T11:26:10;2.45;;;1.90;;
25049;SDS011;13046;49.814;9.918;2023-08-01T11:28:36;2.92;;;1.85;;
25049;SDS011;13046;49.814;9.918;2023-08-01T11:31:12;3.65;;;1.50;;
25049;SDS011;13046;49.814;9.918;2023-08-01T11:33:38;2.20;;;1.92;;
25049;SDS011;13046;49.814;9.918;2023-08-01T11:36:05;2.60;;;2.40;;
25049;SDS011;13046;49.814;9.918;2023-08-01T11:38:32;3.33;;;1.70;;
25049;SDS011;13046;49.814;9.918;2023-08-01T11:40:59;2.42;;;2.03;;
25049;SDS011;13046;49.814;9.918;2023-08-01T11:43:26;1.48;;;1.38;;
25049;SDS011;13046;49.814;9.918;2023-08-01T11:45:53;3.13;;;1.50;;
25049;SDS011;13046;49.814;9.918;2023-08-01T11:48:21;2.00;;;1.50;;
25049;SDS011;13046;49.814;9.918;2023-08-01T11:50:48;2.15;;;1.67;;
25049;SDS011;13046;49.814;9.918;2023-08-01T11:53:18;2.97;;;1.42;;
25049;SDS011;13046;49.814;9.918;2023-08-01T11:55:44;1.83;;;1.40;;
25049;SDS011;13046;49.814;9.918;2023-08-01T11:58:11;1.73;;;1.33;;
25049;SDS011;13046;49.814;9.918;2023-08-01T12:00:39;1.30;;;1.20;;
25049;SDS011;13046;49.814;9.918;2023-08-01T12:03:07;4.95;;;2.28;;
25049;SDS011;13046;49.814;9.918;2023-08-01T12:05:37;3.17;;;1.63;;
25049;SDS011;13046;49.814;9.918;2023-08-01T12:08:12;2.45;;;1.85;;
25049;SDS011;13046;49.814;9.918;2023-08-01T12:10:40;1.63;;;1.50;;
25049;SDS011;13046;49.814;9.918;2023-08-01T12:13:06;1.83;;;1.73;;
25049;SDS011;13046;49.814;9.918;2023-08-01T12:15:32;3.80;;;1.92;;
25049;SDS011;13046;49.814;9.918;2023-08-01T12:17:59;1.70;;;1.60;;
25049;SDS011;13046;49.814;9.918;2023-08-01T12:20:25;1.55;;;1.13;;
25049;SDS011;13046;49.814;9.918;2023-08-01T12:22:51;1.35;;;1.20;;
25049;SDS011;13046;49.814;9.918;2023-08-01T12:25:17;1.58;;;1.10;;
25049;SDS011;13046;49.814;9.918;2023-08-01T12:27:43;1.73;;;1.42;;
25049;SDS011;13046;49.814;9.918;2023-08-01T12:30:10;1.92;;;1.52;;
25049;SDS011;13046;49.814;9.918;2023-08-01T12:32:36;1.65;;;1.40;;
25049;SDS011;13046;49.814;9.918;2023-08-01T12:35:02;3.40;;;1.50;;
25049;SDS011;13046;49.814;9.918;2023-08-01T12:37:29;1.58;;;1.25;;
25049;SDS011;13046;49.814;9.918;2023-08-01T12:39:57;1.38;;;1.10;;
25049;SDS011;13046;49.814;9.918;2023-08-01T12:42:28;1.42;;;1.23;;
25049;SDS011;13046;49.814;9.918;2023-08-01T12:44:54;2.05;;;1.38;;
25049;SDS011;13046;49.814;9.918;2023-08-01T12:47:21;2.75;;;1.73;;
25049;SDS011;13046;49.814;9.918;2023-08-01T12:49:48;1.63;;;1.48;;
25049;SDS011;13046;49.814;9.918;2023-08-01T12:52:21;1.40;;;1.30;;
25049;SDS011;13046;49.814;9.918;2023-08-01T12:54:48;2.47;;;1.45;;
25049;SDS011;13046;49.814;9.918;2023-08-01T12:57:14;2.72;;;1.33;;
25049;SDS011;13046;49.814;9.918;2023-08-01T12:59:41;2.47;;;1.58;;
25049;SDS011;13046;49.814;9.918;2023-08-01T13:02:07;1.55;;;1.45;;
25049;SDS011;13046;49.814;9.918;2023-08-01T13:04:34;2.30;;;1.83;;
25049;SDS011;13046;49.814;9.918;2023-08-01T13:07:00;2.45;;;1.48;;
25049;SDS011;13046;49.814;9.918;2023-08-01T13:09:26;3.72;;;1.60;;
25049;SDS011;13046;49.814;9.918;2023-08-01T13:11:52;1.90;;;1.30;;
25049;SDS011;13046;49.814;9.918;2023-08-01T13:14:18;2.55;;;1.50;;
25049;SDS011;13046;49.814;9.918;2023-08-01T13:16:45;4.00;;;1.48;;
25049;SDS011;13046;49.814;9.918;2023-08-01T13:19:11;1.85;;;1.40;;
25049;SDS011;13046;49.814;9.918;2023-08-01T13:21:37;1.30;;;1.20;;
25049;SDS011;13046;49.814;9.918;2023-08-01T13:24:03;2.63;;;1.63;;
25049;SDS011;13046;49.814;9.918;2023-08-01T13:26:30;1.63;;;1.52;;
25049;SDS011;13046;49.814;9.918;2023-08-01T13:28:57;1.67;;;1.20;;
25049;SDS011;13046;49.814;9.918;2023-08-01T13:31:24;2.22;;;1.67;;
25049;SDS011;13046;49.814;9.918;2023-08-01T13:33:50;2.55;;;1.70;;
25049;SDS011;13046;49.814;9.918;2023-08-01T13:36:19;8.32;;;5.97;;
25049;SDS011;13046;49.814;9.918;2023-08-01T13:38:45;2.25;;;1.70;;
25049;SDS011;13046;49.814;9.918;2023-08-01T13:41:12;1.40;;;1.30;;
25049;SDS011;13046;49.814;9.918;2023-08-01T13:43:38;1.23;;;1.10;;
25049;SDS011;13046;49.814;9.918;2023-08-01T13:46:15;2.00;;;1.80;;
25049;SDS011;13046;49.814;9.918;2023-08-01T13:48:45;2.05;;;1.30;;
25049;SDS011;13046;49.814;9.918;2023-08-01T13:51:12;2.38;;;1.98;;
25049;SDS011;13046;49.814;9.918;2023-08-01T13:53:39;1.73;;;1.50;;
25049;SDS011;13046;49.814;9.918;2023-08-01T13:56:06;2.83;;;1.40;;
25049;SDS011;13046;49.814;9.918;2023-08-01T13:58:33;4.20;;;1.42;;
25049;SDS011;13046;49.814;9.918;2023-08-01T14:01:03;1.55;;;1.27;;
25049;SDS011;13046;49.814;9.918;2023-08-01T14:03:30;2.97;;;1.45;;
25049;SDS011;13046;49.814;9.918;2023-08-01T14:06:03;1.33;;;1.08;;
25049;SDS011;13046;49.814;9.918;2023-08-01T14:08:29;1.25;;;1.15;;
25049;SDS011;13046;49.814;9.918;2023-08-01T14:10:55;1.05;;;0.98;;
25049;SDS011;13046;49.814;9.918;2023-08-01T14:13:21;3.78;;;1.38;;
25049;SDS011;13046;49.814;9.918;2023-08-01T14:15:47;1.60;;;1.50;;
25049;SDS011;13046;49.814;9.918;2023-08-01T14:18:13;1.95;;;1.50;;
25049;SDS011;13046;49.814;9.918;2023-08-01T14:20:39;2.03;;;1.60;;
25049;SDS011;13046;49.814;9.918;2023-08-01T14:23:05;1.50;;;1.40;;
25049;SDS011;13046;49.814;9.918;2023-08-01T14:25:31;1.52;;;1.30;;
25049;SDS011;13046;49.814;9.918;2023-08-01T14:27:58;1.63;;;1.40;;
25049;SDS011;13046;49.814;9.918;2023-08-01T14:30:24;2.38;;;1.65;;
25049;SDS011;13046;49.814;9.918;2023-08-01T14:32:50;2.95;;;1.80;;
25049;SDS011;13046;49.814;9.918;2023-08-01T14:35:16;2.85;;;1.67;;
25049;SDS011;13046;49.814;9.918;2023-08-01T14:37:42;1.88;;;1.42;;
25049;SDS011;13046;49.814;9.918;2023-08-01T14:40:13;3.03;;;1.35;;
25049;SDS011;13046;49.814;9.918;2023-08-01T14:42:39;2.75;;;1.73;;
25049;SDS011;13046;49.814;9.918;2023-08-01T14:45:05;3.88;;;1.75;;
25049;SDS011;13046;49.814;9.918;2023-08-01T14:47:31;5.07;;;2.17;;
25049;SDS011;13046;49.814;9.918;2023-08-01T14:49:59;3.17;;;1.55;;